Time;durP1;ratioP1;P1;durP2;ratioP2;P2;SDS_P1;SDS_P2;PMS_P1;PMS_P2;Temp;Humidity;BMP_temperature;BMP_pressure;BME280_temperature;BME280_humidity;BME280_pressure;Samples;Min_cycle;Max_cycle;Signal;HPM_P1;HPM_P2
2022/08/18 01:29:38;259478.00;0.86;448.25;0.00;0.00;0.62;;;;;23.80;1.00;;;;;;2530156;40;2075;31
2022/08/18 01:35:12;1123493.00;3.74;1952.49;0.00;0.00;0.62;;;;;23.10;1.00;;;;;;2275293;61;1315;-89
2022/08/18 02:44:45;1487315.00;4.96;2619.27;68191.00;0.23;118.63;;;;;23.90;1.00;;;;;;2275083;61;1107;-89
2022/08/18 02:47:29;752936.00;2.51;1299.16;68595.00;0.23;119.33;;;;;23.70;1.00;;;;;;2269666;61;1546;-92
2022/08/18 02:50:15;361387.00;1.20;623.43;12069.00;0.04;21.53;;;;;23.70;1.00;;;;;;2268847;61;963;-92
2022/08/18 02:53:02;435569.00;1.45;750.96;75364.00;0.25;131.03;;;;;23.80;1.00;;;;;;2264521;61;1546;-91
2022/08/18 06:18:47;2350240.00;7.83;4370.04;94676.00;0.32;164.38;;;;;24.40;1.00;;;;;;2274816;61;1058;-88
2022/08/18 06:31:19;1923810.00;6.41;3469.04;112024.00;0.37;194.32;;;;;26.40;1.00;;;;;;2498158;55;3575;31
2022/08/18 07:01:20;1576326.00;5.25;2787.58;5176.00;0.02;9.59;;;;;26.30;1.00;;;;;;2274871;61;1174;-90
2022/08/18 07:44:05;2232804.00;7.44;4113.82;119702.00;0.40;207.57;;;;;25.50;1.00;;;;;;2498165;55;3688;31
2022/08/18 07:51:42;1570410.00;5.23;2776.32;142323.00;0.47;246.58;;;;;25.40;1.00;;;;;;2499756;55;3582;31
2022/08/18 08:12:06;1689293.00;5.63;3004.64;4491.00;0.01;8.40;;;;;23.60;1.00;;;;;;2498631;41;3460;31
2022/08/18 09:19:51;1709003.00;5.70;3042.93;44063.00;0.15;76.92;;;;;29.20;1.00;;;;;;2274958;61;1115;-87
2022/08/18 09:22:29;410224.00;1.37;707.38;49122.00;0.16;85.67;;;;;28.90;1.00;;;;;;2273339;61;1773;-89
2022/08/18 09:32:55;912314.00;3.04;1577.76;54116.00;0.18;94.30;;;;;29.90;1.00;;;;;;2266560;61;1334;-89
2022/08/18 10:07:56;1698339.00;5.66;3022.20;0.00;0.00;0.62;;;;;29.20;1.00;;;;;;2289207;56;3614;-91
2022/08/18 10:33:10;1454319.00;4.85;2557.45;11112.00;0.04;19.88;;;;;28.20;1.00;;;;;;2266124;61;1437;-85
2022/08/18 10:36:07;133746.00;0.45;231.79;0.00;0.00;0.62;;;;;27.40;1.00;;;;;;2369250;40;3776;-87
2022/08/18 11:04:32;471855.00;1.57;813.38;0.00;0.00;0.62;;;;;29.20;1.00;;;;;;2299964;56;2109;-88
2022/08/18 11:12:43;1216293.00;4.05;2119.71;27880.00;0.09;48.91;;;;;28.70;1.00;;;;;;2265879;61;1349;-86
2022/08/18 11:22:58;120445624.00;401.49;70783464.00;0.00;0.00;0.62;;;;;29.10;1.00;;;;;;2266109;61;1188;-86
2022/08/18 11:25:31;167005.00;0.56;289.11;0.00;0.00;0.62;;;;;28.80;1.00;;;;;;2264224;61;2091;-85
2022/08/18 11:31:10;427616.00;1.43;737.29;56111.00;0.19;97.75;;;;;28.10;1.00;;;;;;2292781;55;3813;-86
2022/08/18 11:33:45;287143.00;0.96;495.82;104561.00;0.35;181.44;;;;;27.60;1.00;;;;;;2317224;40;3671;-87
2022/08/18 11:36:30;510415.00;1.70;879.76;51324.00;0.17;89.48;;;;;27.50;1.00;;;;;;2287503;55;3743;-87
2022/08/18 11:44:04;1459615.00;4.87;2567.36;139625.00;0.47;241.92;;;;;27.40;1.00;;;;;;2265913;61;1175;-87
2022/08/18 11:54:43;2175400.00;7.25;3990.92;201166.00;0.67;347.93;;;;;28.20;1.00;;;;;;2264707;61;1403;-86
2022/08/18 11:59:39;430818.00;1.44;742.79;70207.00;0.23;122.12;;;;;28.10;1.00;;;;;;2264886;61;1319;-87
2022/08/18 12:02:26;441154.00;1.47;760.57;62192.00;0.21;108.27;;;;;28.40;1.00;;;;;;2263486;61;1242;-86
2022/08/18 12:04:59;130124.00;0.43;225.54;0.00;0.00;0.62;;;;;28.30;1.00;;;;;;2263410;61;1766;-85
2022/08/18 12:07:30;72532.00;0.24;126.14;0.00;0.00;0.62;;;;;28.20;1.00;;;;;;2263352;61;1494;-85
2022/08/18 12:10:18;56062.00;0.19;97.67;0.00;0.00;0.62;;;;;27.90;1.00;;;;;;2263462;61;1912;-86
2022/08/18 12:12:47;242071.00;0.81;418.31;74756.00;0.25;129.98;;;;;28.40;1.00;;;;;;2263359;61;1784;-87
2022/08/18 12:15:31;150313.00;0.50;260.35;0.00;0.00;0.62;;;;;28.40;1.00;;;;;;2263393;61;1470;-86
2022/08/18 12:18:00;456941.00;1.52;787.72;55111.00;0.18;96.02;;;;;27.90;1.00;;;;;;2282603;40;3665;-86
2022/08/18 12:20:27;386912.00;1.29;667.31;40944.00;0.14;71.52;;;;;27.60;1.00;;;;;;2302458;41;3808;-85
2022/08/18 12:25:27;241409.00;0.80;417.17;0.00;0.00;0.62;;;;;27.40;1.00;;;;;;2265110;61;1492;-87
2022/08/18 12:27:54;14693.00;0.05;26.08;0.00;0.00;0.62;;;;;27.40;1.00;;;;;;2263441;61;1089;-86
2022/08/18 12:30:21;0.00;0.00;0.62;0.00;0.00;0.62;;;;;27.40;1.00;;;;;;2263185;61;2000;-85
2022/08/18 12:32:49;0.00;0.00;0.62;0.00;0.00;0.62;;;;;27.20;1.00;;;;;;2263237;61;1697;-85
2022/08/18 12:35:17;13349.00;0.04;23.75;0.00;0.00;0.62;;;;;27.30;1.00;;;;;;2263150;61;1719;-85
2022/08/18 12:37:45;222496.00;0.74;384.64;0.00;0.00;0.62;;;;;27.50;1.00;;;;;;2263305;61;1162;-84
2022/08/18 12:40:12;0.00;0.00;0.62;0.00;0.00;0.62;;;;;27.30;1.00;;;;;;2262910;61;1042;-85
2022/08/18 12:42:40;238317.00;0.79;411.86;105484.00;0.35;183.04;;;;;27.00;1.00;;;;;;2260656;61;1133;-86
2022/08/18 12:45:10;0.00;0.00;0.62;0.00;0.00;0.62;;;;;27.30;1.00;;;;;;2260595;61;1124;-86
2022/08/18 12:47:41;186849.00;0.62;323.28;46128.00;0.15;80.49;;;;;27.20;1.00;;;;;;2260576;61;1308;-87
2022/08/18 12:50:09;108507.00;0.36;188.25;0.00;0.00;0.62;;;;;27.00;1.00;;;;;;2260630;61;1920;-86
2022/08/18 12:52:40;175953.00;0.59;304.52;0.00;0.00;0.62;;;;;26.90;1.00;;;;;;2260418;61;1196;-85
2022/08/18 12:55:08;0.00;0.00;0.62;0.00;0.00;0.62;;;;;26.80;1.00;;;;;;2260574;61;2101;-85
2022/08/18 12:57:36;74743.00;0.25;129.96;0.00;0.00;0.62;;;;;27.00;1.00;;;;;;2260567;61;1314;-86
2022/08/18 13:00:04;0.00;0.00;0.62;0.00;0.00;0.62;;;;;27.00;1.00;;;;;;2260662;61;1188;-85
2022/08/18 13:02:31;139466.00;0.46;241.65;0.00;0.00;0.62;;;;;27.10;1.00;;;;;;2260555;61;1011;-86
2022/08/18 13:04:58;93690.00;0.31;162.68;0.00;0.00;0.62;;;;;27.40;1.00;;;;;;2260572;61;1087;-85
2022/08/18 13:07:25;125187.00;0.42;217.03;0.00;0.00;0.62;;;;;27.40;1.00;;;;;;2260562;61;1399;-87
2022/08/18 13:09:53;0.00;0.00;0.62;0.00;0.00;0.62;;;;;27.40;1.00;;;;;;2260553;61;2035;-87
2022/08/18 13:12:21;0.00;0.00;0.62;0.00;0.00;0.62;;;;;27.40;1.00;;;;;;2260537;61;1136;-86
2022/08/18 13:14:49;0.00;0.00;0.62;0.00;0.00;0.62;;;;;27.00;1.00;;;;;;2260400;61;1526;-86
2022/08/18 13:17:17;27992.00;0.09;49.11;0.00;0.00;0.62;;;;;27.20;1.00;;;;;;2260574;61;1411;-85
2022/08/18 13:19:47;0.00;0.00;0.62;0.00;0.00;0.62;;;;;27.20;1.00;;;;;;2286486;40;3574;-86
2022/08/18 13:22:14;738105.00;2.46;1273.38;0.00;0.00;0.62;;;;;27.70;1.00;;;;;;2264252;61;1607;-88
2022/08/18 13:24:46;176267.00;0.59;305.06;0.00;0.00;0.62;;;;;28.10;1.00;;;;;;2264264;61;1543;-86
2022/08/18 13:27:15;297199.00;0.99;513.11;0.00;0.00;0.62;;;;;28.20;1.00;;;;;;2264467;61;1625;-86
2022/08/18 13:29:42;133635.00;0.45;231.60;0.00;0.00;0.62;;;;;28.00;1.00;;;;;;2264473;61;2005;-89
2022/08/18 13:32:10;77405.00;0.26;134.55;0.00;0.00;0.62;;;;;27.50;1.00;;;;;;2264569;61;1259;-85
2022/08/18 13:34:37;38034.00;0.13;66.49;0.00;0.00;0.62;;;;;27.30;1.00;;;;;;2264527;61;1097;-84
2022/08/18 13:37:04;362053.00;1.21;624.58;3853.00;0.01;7.30;;;;;27.50;1.00;;;;;;2264504;61;1275;-85
2022/08/18 13:39:31;213907.00;0.71;369.86;0.00;0.00;0.62;;;;;27.60;1.00;;;;;;2264457;61;1222;-86
2022/08/18 13:41:59;253435.00;0.84;437.86;0.00;0.00;0.62;;;;;27.80;1.00;;;;;;2264535;61;1092;-86
2022/08/18 13:44:28;242670.00;0.81;419.34;0.00;0.00;0.62;;;;;28.30;1.00;;;;;;2264389;61;1420;-86
2022/08/18 13:46:56;160153.00;0.53;277.30;25441.00;0.08;44.69;;;;;28.40;1.00;;;;;;2264455;61;1363;-86
2022/08/18 13:49:24;0.00;0.00;0.62;0.00;0.00;0.62;;;;;28.10;1.00;;;;;;2264452;61;1915;-86
2022/08/18 13:51:58;141689.00;0.47;245.48;0.00;0.00;0.62;;;;;28.30;1.00;;;;;;2264199;61;1016;-86
2022/08/18 13:54:31;0.00;0.00;0.62;0.00;0.00;0.62;;;;;28.40;1.00;;;;;;2264438;61;1046;-84
2022/08/18 13:56:59;54702.00;0.18;95.32;0.00;0.00;0.62;;;;;28.30;1.00;;;;;;2264348;61;1587;-86
2022/08/18 14:04:35;511966.00;1.71;882.43;66058.00;0.22;114.95;;;;;28.30;1.00;;;;;;2261935;61;1184;-87
2022/08/18 14:07:02;148289.00;0.49;256.86;0.00;0.00;0.62;;;;;27.80;1.00;;;;;;2260312;61;1789;-87
2022/08/18 14:09:30;309844.00;1.03;534.84;0.00;0.00;0.62;;;;;28.10;1.00;;;;;;2260389;61;1911;-87
2022/08/18 14:12:02;0.00;0.00;0.62;0.00;0.00;0.62;;;;;28.00;1.00;;;;;;2260373;61;1117;-84
2022/08/18 14:14:36;31638.00;0.11;55.42;0.00;0.00;0.62;;;;;28.20;1.00;;;;;;2260317;61;1061;-84
2022/08/18 14:17:12;125871.00;0.42;218.21;0.00;0.00;0.62;;;;;28.30;1.00;;;;;;2260400;61;1494;-84
2022/08/18 14:27:57;278229.00;0.93;480.49;78438.00;0.26;136.34;;;;;28.50;1.00;;;;;;2260408;61;734;-84
2022/08/18 14:35:34;197496.00;0.66;341.61;0.00;0.00;0.62;;;;;28.60;1.00;;;;;;2336433;40;2847;-87
2022/08/18 14:40:34;911520.00;3.04;1576.36;0.00;0.00;0.62;;;;;29.40;1.00;;;;;;2262492;61;1338;-92
2022/08/18 14:43:02;188911.00;0.63;326.83;0.00;0.00;0.62;;;;;30.10;1.00;;;;;;2260076;61;1565;-88
2022/08/18 14:48:17;298341.00;0.99;515.07;59089.00;0.20;102.90;;;;;29.40;1.00;;;;;;2271196;56;3802;-87
2022/08/18 14:51:15;345862.00;1.15;596.75;61312.00;0.20;106.74;;;;;29.00;1.00;;;;;;2264140;61;1915;-88
2022/08/18 14:54:07;226482.00;0.75;391.50;0.00;0.00;0.62;;;;;28.70;1.00;;;;;;2263948;61;1605;-87
2022/08/18 14:59:46;1244267.00;4.15;2170.46;0.00;0.00;0.62;;;;;29.70;1.00;;;;;;2154023;41;3495;-88
2022/08/18 15:07:40;937494.00;3.12;1622.07;0.00;0.00;0.62;;;;;30.70;1.00;;;;;;2261970;61;1390;-88
2022/08/18 15:38:11;862619.00;2.88;1490.56;54486.00;0.18;94.94;;;;;30.80;1.00;;;;;;2261526;61;1414;-89
2022/08/18 15:40:49;624238.00;2.08;1076.09;78854.00;0.26;137.06;;;;;30.90;1.00;;;;;;2259975;61;1711;-87
2022/08/18 15:43:16;436240.00;1.45;752.12;63190.00;0.21;109.99;;;;;30.90;1.00;;;;;;2260030;61;1552;-87
2022/08/18 15:45:46;318147.00;1.06;549.11;56595.00;0.19;98.59;;;;;30.30;1.00;;;;;;2259971;61;1602;-88
2022/08/18 15:48:15;328334.00;1.09;566.62;59822.00;0.20;104.17;;;;;30.00;1.00;;;;;;2259910;61;1642;-90
2022/08/18 15:50:44;466505.00;1.56;804.18;87944.00;0.29;152.76;;;;;30.10;1.00;;;;;;2259962;61;1920;-89
2022/08/18 15:53:19;386054.00;1.29;665.83;59227.00;0.20;103.14;;;;;29.90;1.00;;;;;;2271352;40;3606;-87
2022/08/18 15:55:50;526346.00;1.75;907.20;66074.00;0.22;114.98;;;;;29.80;1.00;;;;;;2264015;61;1459;-90
2022/08/18 15:58:20;679632.00;2.27;1171.94;88687.00;0.30;154.04;;;;;29.70;1.00;;;;;;2263956;61;1667;-88
2022/08/18 16:00:51;522881.00;1.74;901.23;59804.00;0.20;104.14;;;;;29.40;1.00;;;;;;2263963;61;1160;-89
2022/08/18 16:03:21;270907.00;0.90;467.90;0.00;0.00;0.62;;;;;29.40;1.00;;;;;;2264122;61;1435;-88
2022/08/18 16:05:57;873716.00;2.91;1510.00;125552.00;0.42;217.66;;;;;29.60;1.00;;;;;;2263977;61;1608;-88
2022/08/18 16:08:26;404214.00;1.35;697.05;0.00;0.00;0.62;;;;;29.60;1.00;;;;;;2263985;61;1078;-89
2022/08/18 16:13:28;1094067.00;3.65;1899.82;27693.00;0.09;48.59;;;;;30.10;1.00;;;;;;2262575;61;1421;-88
2022/08/18 16:15:55;776099.00;2.59;1339.47;20096.00;0.07;35.44;;;;;30.10;1.00;;;;;;2270969;56;3772;-90
2022/08/18 16:20:52;1478126.00;4.93;2602.03;57094.00;0.19;99.45;;;;;30.10;1.00;;;;;;2262488;61;1275;-87
2022/08/18 16:25:52;864282.00;2.88;1493.47;0.00;0.00;0.62;;;;;29.10;1.00;;;;;;2262486;61;1286;-90
2022/08/18 16:28:20;356204.00;1.19;614.52;0.00;0.00;0.62;;;;;28.90;1.00;;;;;;2260437;61;1703;-89
2022/08/18 16:30:50;386918.00;1.29;667.32;0.00;0.00;0.62;;;;;29.10;1.00;;;;;;2260654;61;1985;-88
2022/08/18 16:33:17;378757.00;1.26;653.29;12104.00;0.04;21.59;;;;;29.30;1.00;;;;;;2260650;61;1073;-88
2022/08/18 16:35:46;600463.00;2.00;1035.02;55042.00;0.18;95.91;;;;;29.30;1.00;;;;;;2260410;61;1503;-90
2022/08/18 16:38:13;219512.00;0.73;379.50;0.00;0.00;0.62;;;;;29.60;1.00;;;;;;2265915;40;3610;-89
2022/08/18 16:40:41;408655.00;1.36;704.68;0.00;0.00;0.62;;;;;30.00;1.00;;;;;;2264606;61;1651;-88
2022/08/18 16:43:11;340160.00;1.13;586.95;0.00;0.00;0.62;;;;;29.60;1.00;;;;;;2264521;61;1653;-88
2022/08/18 16:45:42;456091.00;1.52;786.26;13198.00;0.04;23.49;;;;;29.40;1.00;;;;;;2264630;61;1557;-89
2022/08/18 16:50:50;336736.00;1.12;581.06;0.00;0.00;0.62;;;;;29.60;1.00;;;;;;2262172;61;1964;-89
2022/08/18 16:53:21;99458.00;0.33;172.64;0.00;0.00;0.62;;;;;29.60;1.00;;;;;;2260618;61;1007;-89
2022/08/18 16:55:50;255086.00;0.85;440.70;0.00;0.00;0.62;;;;;29.80;1.00;;;;;;2260382;61;1487;-90
2022/08/18 17:06:28;186452.00;0.62;322.60;0.00;0.00;0.62;;;;;29.60;1.00;;;;;;2260618;61;1348;-89
2022/08/18 17:08:58;294156.00;0.98;507.87;0.00;0.00;0.62;;;;;29.80;1.00;;;;;;2260439;61;1480;-90
2022/08/18 17:11:27;161415.00;0.54;279.48;0.00;0.00;0.62;;;;;29.90;1.00;;;;;;2260382;61;1981;-90
2022/08/18 17:14:01;65838.00;0.22;114.57;0.00;0.00;0.62;;;;;30.00;1.00;;;;;;2260620;61;1034;-88
2022/08/18 17:16:30;151136.00;0.50;261.77;0.00;0.00;0.62;;;;;29.70;1.00;;;;;;2260449;61;1380;-90
2022/08/18 17:18:59;345279.00;1.15;595.75;45607.00;0.15;79.59;;;;;29.20;1.00;;;;;;2260510;61;1119;-89
2022/08/18 17:23:58;236226.00;0.79;408.26;0.00;0.00;0.62;;;;;28.00;1.00;;;;;;2262491;61;1396;-86
2022/08/18 17:26:37;219447.00;0.73;379.39;0.00;0.00;0.62;;;;;27.70;1.00;;;;;;2260469;61;1353;-87
2022/08/18 17:34:07;610660.00;2.04;1052.63;0.00;0.00;0.62;;;;;27.80;1.00;;;;;;2262131;61;1410;-88
2022/08/18 17:36:39;157638.00;0.53;272.97;0.00;0.00;0.62;;;;;27.70;1.00;;;;;;2260433;61;1551;-87
2022/08/18 17:39:11;0.00;0.00;0.62;0.00;0.00;0.62;;;;;27.50;1.00;;;;;;2260529;61;1128;-88
2022/08/18 17:42:24;0.00;0.00;0.62;0.00;0.00;0.62;;;;;27.10;1.00;;;;;;2260479;61;1105;-88
2022/08/18 17:44:27;339485.00;1.13;585.79;135448.00;0.45;234.72;;;;;26.80;1.00;;;;;;2260453;61;1257;-86
2022/08/18 17:46:58;122757.00;0.41;212.84;56789.00;0.19;98.93;;;;;26.40;1.00;;;;;;2260436;61;1305;-88
2022/08/18 17:52:18;138140944.00;460.47;106831728.00;138086384.00;460.29;106705048.00;;;;;25.90;1.00;;;;;;2260263;61;1985;-88
2022/08/18 17:54:49;0.00;0.00;0.62;0.00;0.00;0.62;;;;;25.90;1.00;;;;;;2260445;61;929;-86
2022/08/18 17:57:23;5495.00;0.02;10.14;0.00;0.00;0.62;;;;;25.90;1.00;;;;;;2260477;61;1491;-86
2022/08/18 17:59:58;152799.00;0.51;264.63;0.00;0.00;0.62;;;;;25.90;1.00;;;;;;2260349;61;1476;-86
2022/08/18 18:02:27;317951.00;1.06;548.78;0.00;0.00;0.62;;;;;25.90;1.00;;;;;;2286373;56;3837;-87
2022/08/18 18:04:56;260010.00;0.87;449.17;0.00;0.00;0.62;;;;;26.00;1.00;;;;;;2264355;61;1729;-87
2022/08/18 18:07:27;113580.00;0.38;197.01;0.00;0.00;0.62;;;;;25.80;1.00;;;;;;2260623;61;1536;-87
2022/08/18 18:09:57;266390.00;0.89;460.14;0.00;0.00;0.62;;;;;25.90;1.00;;;;;;2260427;61;1042;-88
2022/08/18 18:12:28;153199.00;0.51;265.32;0.00;0.00;0.62;;;;;26.00;1.00;;;;;;2260452;61;1999;-86
2022/08/18 18:14:56;66595.00;0.22;115.88;0.00;0.00;0.62;;;;;25.90;1.00;;;;;;2260394;61;987;-84
2022/08/18 18:20:11;132173.00;0.44;229.08;0.00;0.00;0.62;;;;;26.10;1.00;;;;;;2266227;61;1499;-86
2022/08/18 18:22:40;87553.00;0.29;152.08;16901.00;0.06;29.90;;;;;26.00;1.00;;;;;;2264377;61;1060;-85
2022/08/18 18:25:09;132550.00;0.44;229.73;0.00;0.00;0.62;;;;;26.10;1.00;;;;;;2264457;61;1144;-87
2022/08/18 18:27:40;222607.00;0.74;384.83;8515.00;0.03;15.38;;;;;26.30;1.00;;;;;;2260357;61;1437;-86
2022/08/18 18:30:20;150724.00;0.50;261.06;0.00;0.00;0.62;;;;;26.40;1.00;;;;;;2260237;61;1538;-83
2022/08/18 18:32:57;4603.00;0.02;8.60;0.00;0.00;0.62;;;;;26.30;1.00;;;;;;2267077;40;3617;-84
2022/08/18 18:35:27;234358.00;0.78;405.05;18897.00;0.06;33.36;;;;;26.50;1.00;;;;;;2264070;61;1436;-87
2022/08/18 18:37:57;261691.00;0.87;452.06;0.00;0.00;0.62;;;;;26.80;1.00;;;;;;2260179;61;938;-86
2022/08/18 18:40:32;353365.00;1.18;609.64;39322.00;0.13;68.72;;;;;27.20;1.00;;;;;;2260248;61;1531;-84
2022/08/18 18:43:18;145244.00;0.48;251.61;0.00;0.00;0.62;;;;;27.30;1.00;;;;;;2260094;61;1155;-85
2022/08/18 18:46:13;73399.00;0.24;127.63;0.00;0.00;0.62;;;;;27.40;1.00;;;;;;2260191;61;1349;-85
2022/08/18 18:48:50;40704.00;0.14;71.11;0.00;0.00;0.62;;;;;27.50;1.00;;;;;;2260007;61;1211;-86
2022/08/18 18:51:27;0.00;0.00;0.62;0.00;0.00;0.62;;;;;27.30;1.00;;;;;;2260118;61;1928;-86
2022/08/18 18:54:05;151442.00;0.50;262.29;0.00;0.00;0.62;;;;;27.00;1.00;;;;;;2260031;61;1565;-85
2022/08/18 18:56:38;186266.00;0.62;322.28;24795.00;0.08;43.57;;;;;26.90;1.00;;;;;;2260264;61;1470;-86
2022/08/18 18:59:20;156118.00;0.52;270.35;0.00;0.00;0.62;;;;;26.70;1.00;;;;;;2260306;61;1058;-88
2022/08/18 19:01:59;186797.00;0.62;323.19;0.00;0.00;0.62;;;;;26.90;1.00;;;;;;2260281;61;1492;-88
2022/08/18 19:04:35;444110.00;1.48;765.65;8123.00;0.03;14.70;;;;;27.00;1.00;;;;;;2260097;61;1497;-87
2022/08/18 19:07:11;318336.00;1.06;549.44;0.00;0.00;0.62;;;;;26.50;1.00;;;;;;2260186;61;1285;-85
2022/08/18 19:09:49;200117.00;0.67;346.13;52469.00;0.17;91.46;;;;;26.40;1.00;;;;;;2260244;61;1015;-85
2022/08/18 19:12:22;271198.00;0.90;468.40;0.00;0.00;0.62;;;;;26.20;1.00;;;;;;2260144;61;1935;-85
2022/08/18 19:14:56;316365.00;1.05;546.05;0.00;0.00;0.62;;;;;26.40;1.00;;;;;;2260176;61;1346;-87
2022/08/18 19:20:00;654199.00;2.18;1127.90;0.00;0.00;0.62;;;;;26.70;1.00;;;;;;2253884;61;1406;-88
2022/08/18 19:22:38;141854.00;0.47;245.77;0.00;0.00;0.62;;;;;26.80;1.00;;;;;;2258151;56;3765;-84
2022/08/18 19:25:23;181229.00;0.60;313.61;74360.00;0.25;129.29;;;;;26.90;1.00;;;;;;2264018;61;1122;-87
2022/08/18 19:27:55;205874.00;0.69;356.03;11863.00;0.04;21.18;;;;;26.80;1.00;;;;;;2260120;61;929;-89
2022/08/18 19:30:22;439349.00;1.46;757.46;72165.00;0.24;125.50;;;;;26.60;1.00;;;;;;2260036;61;1594;-88
2022/08/18 19:35:32;1084762.00;3.62;1883.19;23645.00;0.08;41.58;;;;;26.30;1.00;;;;;;2265731;61;1413;-85
2022/08/18 19:38:19;225332.00;0.75;389.52;0.00;0.00;0.62;;;;;26.00;1.00;;;;;;2260018;61;1113;-86
2022/08/18 19:40:51;12036.00;0.04;21.48;0.00;0.00;0.62;;;;;26.00;1.00;;;;;;2260164;61;901;-86
2022/08/18 19:43:28;301537.00;1.01;520.56;0.00;0.00;0.62;;;;;26.20;1.00;;;;;;2260077;61;1517;-87
2022/08/18 19:46:02;129688.00;0.43;224.79;0.00;0.00;0.62;;;;;26.00;1.00;;;;;;2260099;61;1417;-87
2022/08/18 19:51:06;662499.00;2.21;1142.27;46784.00;0.16;81.62;;;;;25.50;1.00;;;;;;2265867;61;1975;-88
2022/08/18 19:53:53;622360.00;2.07;1072.84;154813.00;0.52;268.10;;;;;25.30;1.00;;;;;;2264854;61;1101;-86
2022/08/18 19:56:37;319937.00;1.07;552.19;35237.00;0.12;61.65;;;;;25.30;1.00;;;;;;2262942;61;1344;-85
2022/08/18 19:59:26;241937.00;0.81;418.08;0.00;0.00;0.62;;;;;25.40;1.00;;;;;;2260794;61;1019;-87
2022/08/18 20:02:03;276065.00;0.92;476.77;0.00;0.00;0.62;;;;;25.30;1.00;;;;;;2260881;61;1045;-87
2022/08/18 20:04:50;51626.00;0.17;90.00;0.00;0.00;0.62;;;;;25.20;1.00;;;;;;2260818;61;1541;-87
2022/08/18 20:07:56;170493.00;0.57;295.12;0.00;0.00;0.62;;;;;25.60;1.00;;;;;;2260677;61;1693;-86
2022/08/18 20:10:45;293633.00;0.98;506.97;51764.00;0.17;90.24;;;;;25.80;1.00;;;;;;2260669;61;1515;-87
2022/08/18 20:13:31;260065.00;0.87;449.26;0.00;0.00;0.62;;;;;25.40;1.00;;;;;;2260760;61;947;-87
2022/08/18 20:16:12;78503.00;0.26;136.45;0.00;0.00;0.62;;;;;25.50;1.00;;;;;;2260617;61;1486;-88
2022/08/18 20:18:42;130844.00;0.44;226.78;0.00;0.00;0.62;;;;;25.60;1.00;;;;;;2260722;61;1418;-84
2022/08/18 20:21:33;201304.00;0.67;348.17;0.00;0.00;0.62;;;;;25.60;1.00;;;;;;2260697;61;1749;-88
2022/08/18 20:24:04;79994.00;0.27;139.03;0.00;0.00;0.62;;;;;25.60;1.00;;;;;;2260611;61;1783;-87
2022/08/18 20:26:48;10394.00;0.03;18.63;0.00;0.00;0.62;;;;;25.60;1.00;;;;;;2260663;61;1356;-87
2022/08/18 20:29:18;216484.00;0.72;374.29;0.00;0.00;0.62;;;;;25.50;1.00;;;;;;2260654;61;1065;-86
2022/08/18 20:31:53;160504.00;0.54;277.91;0.00;0.00;0.62;;;;;25.30;1.00;;;;;;2281362;40;3625;-84
2022/08/18 20:34:23;415994.00;1.39;717.30;0.00;0.00;0.62;;;;;25.10;1.00;;;;;;2264649;61;1799;-88
2022/08/18 20:36:52;573398.00;1.91;988.31;27870.00;0.09;48.90;;;;;25.10;1.00;;;;;;2261958;61;1337;-84
2022/08/18 20:39:43;901547.00;3.01;1558.84;114619.00;0.38;198.80;;;;;25.30;1.00;;;;;;2260588;61;1752;-85
2022/08/18 20:42:49;434111.00;1.45;748.46;0.00;0.00;0.62;;;;;25.40;1.00;;;;;;2259852;61;1523;-86
2022/08/18 20:48:23;1065119.00;3.55;1848.16;20266.00;0.07;35.73;;;;;25.20;1.00;;;;;;2277137;40;3514;-87
2022/08/18 20:53:44;1058894.00;3.53;1837.07;0.00;0.00;0.62;;;;;25.90;1.00;;;;;;2009554;60;2688;-87
2022/08/18 20:56:19;978722.00;3.26;1694.82;65239.00;0.22;113.53;;;;;25.80;1.00;;;;;;2263005;61;1454;-87
2022/08/18 20:58:56;799664.00;2.67;1380.54;4547.00;0.02;8.50;;;;;25.70;1.00;;;;;;2260616;61;1346;-87
2022/08/18 21:01:28;902247.00;3.01;1560.07;87894.00;0.29;152.67;;;;;25.60;1.00;;;;;;2260548;61;1382;-87
2022/08/18 21:03:55;830980.00;2.77;1435.21;71954.00;0.24;125.14;;;;;25.70;1.00;;;;;;2260679;61;1082;-88
2022/08/18 21:06:28;494883.00;1.65;853.01;60357.00;0.20;105.09;;;;;25.50;1.00;;;;;;2260530;61;1473;-88
2022/08/18 21:16:40;1367668.00;4.56;2396.49;67066.00;0.22;116.69;;;;;25.90;1.00;;;;;;2271078;56;3651;-87
2022/08/18 21:19:12;439221.00;1.46;757.24;46746.00;0.16;81.56;;;;;25.60;1.00;;;;;;2261078;61;1609;-87
2022/08/18 21:37:06;614413.00;2.05;1059.11;61945.00;0.21;107.84;;;;;25.60;1.00;;;;;;2262820;61;1395;-86
2022/08/18 21:42:17;507482.00;1.69;874.71;101980.00;0.34;176.99;;;;;25.80;1.00;;;;;;2266172;61;1312;-86
2022/08/18 21:47:23;304443.00;1.01;525.56;72144.00;0.24;125.47;;;;;25.80;1.00;;;;;;2291838;41;2040;-87
2022/08/18 21:55:04;385064.00;1.28;664.13;0.00;0.00;0.62;;;;;25.70;1.00;;;;;;2279251;56;3663;-86
2022/08/18 21:57:53;391231.00;1.30;674.73;0.00;0.00;0.62;;;;;25.70;1.00;;;;;;2267533;40;3670;-87
2022/08/18 22:05:31;427202.00;1.42;736.57;0.00;0.00;0.62;;;;;25.80;1.00;;;;;;2281364;56;3593;-86
2022/08/18 22:16:30;14013.00;0.05;24.90;0.00;0.00;0.62;;;;;25.20;1.00;;;;;;2348254;55;3860;-86
2022/08/18 22:21:36;266132.00;0.89;459.69;0.00;0.00;0.62;;;;;25.50;1.00;;;;;;2265932;61;1345;-87
2022/08/18 22:26:40;504689.00;1.68;869.90;0.00;0.00;0.62;;;;;25.60;1.00;;;;;;2259457;61;1425;-87
2022/08/18 22:29:16;181524.00;0.61;314.11;36340.00;0.12;63.56;;;;;25.50;1.00;;;;;;2256164;61;1681;-85
2022/08/18 22:31:45;189499.00;0.63;327.85;0.00;0.00;0.62;;;;;25.10;1.00;;;;;;2256337;61;2005;-85
2022/08/18 22:34:15;360499.00;1.20;621.91;0.00;0.00;0.62;;;;;25.00;1.00;;;;;;2256309;61;1220;-88
2022/08/18 22:36:45;104057.00;0.35;180.57;0.00;0.00;0.62;;;;;24.70;1.00;;;;;;2256336;61;1448;-86
2022/08/18 22:39:28;106030.00;0.35;183.98;0.00;0.00;0.62;;;;;24.90;1.00;;;;;;2256130;61;1444;-88
2022/08/18 23:00:08;290336.00;0.97;501.31;0.00;0.00;0.62;;;;;25.00;1.00;;;;;;2341530;41;2179;-85
2022/08/18 23:05:09;521708.00;1.74;899.21;0.00;0.00;0.62;;;;;25.00;1.00;;;;;;2263337;61;1413;-86
2022/08/18 23:27:54;812992.00;2.71;1403.79;0.00;0.00;0.62;;;;;25.30;1.00;;;;;;2262039;61;1312;-87
2022/08/18 23:35:33;746041.00;2.49;1287.17;68699.00;0.23;119.51;;;;;25.50;1.00;;;;;;2262080;61;1243;-88
